sensor_id;sensor_type;location;lat;lon;timestamp;pressure;altitude;pressure_sealevel;temperature;humidity
20119;BME280;10220;42.716;23.306;2023-11-18T00:00:07;94571.94;;;7.03;100.00
20119;BME280;10220;42.716;23.306;2023-11-18T00:02:37;94572.75;;;7.04;100.00
20119;BME280;10220;42.716;23.306;2023-11-18T00:05:03;94566.97;;;7.02;100.00
20119;BME280;10220;42.716;23.306;2023-11-18T00:07:29;94577.06;;;6.91;100.00
20119;BME280;10220;42.716;23.306;2023-11-18T00:09:54;94575.88;;;6.99;100.00
20119;BME280;10220;42.716;23.306;2023-11-18T00:12:20;94557.47;;;6.83;100.00
20119;BME280;10220;42.716;23.306;2023-11-18T00:14:45;94573.09;;;6.82;100.00
20119;BME280;10220;42.716;23.306;2023-11-18T00:17:11;94583.56;;;6.80;100.00
20119;BME280;10220;42.716;23.306;2023-11-18T00:19:37;94598.25;;;6.93;100.00
20119;BME280;10220;42.716;23.306;2023-11-18T00:22:03;94597.03;;;6.76;100.00
20119;BME280;10220;42.716;23.306;2023-11-18T00:24:28;94607.91;;;6.71;100.00
20119;BME280;10220;42.716;23.306;2023-11-18T00:26:54;94590.81;;;6.51;100.00
20119;BME280;10220;42.716;23.306;2023-11-18T00:29:20;94592.00;;;6.55;100.00
20119;BME280;10220;42.716;23.306;2023-11-18T00:31:46;94573.75;;;6.43;100.00
20119;BME280;10220;42.716;23.306;2023-11-18T00:34:11;94538.53;;;6.38;100.00
20119;BME280;10220;42.716;23.306;2023-11-18T00:36:36;94576.59;;;6.55;100.00
20119;BME280;10220;42.716;23.306;2023-11-18T00:39:02;94583.13;;;6.57;100.00
20119;BME280;10220;42.716;23.306;2023-11-18T00:41:29;94562.53;;;6.57;100.00
20119;BME280;10220;42.716;23.306;2023-11-18T00:43:55;94563.88;;;6.41;100.00
20119;BME280;10220;42.716;23.306;2023-11-18T00:46:21;94572.81;;;6.51;100.00
20119;BME280;10220;42.716;23.306;2023-11-18T00:48:47;94569.03;;;6.47;100.00
20119;BME280;10220;42.716;23.306;2023-11-18T00:51:12;94557.56;;;6.43;100.00
20119;BME280;10220;42.716;23.306;2023-11-18T00:53:38;94580.50;;;6.44;100.00
20119;BME280;10220;42.716;23.306;2023-11-18T00:56:04;94574.75;;;6.42;100.00
20119;BME280;10220;42.716;23.306;2023-11-18T00:58:33;94580.44;;;6.32;100.00
20119;BME280;10220;42.716;23.306;2023-11-18T01:01:04;94585.84;;;6.43;100.00
20119;BME280;10220;42.716;23.306;2023-11-18T01:03:31;94598.22;;;6.27;100.00
20119;BME280;10220;42.716;23.306;2023-11-18T01:05:59;94580.16;;;6.14;100.00
20119;BME280;10220;42.716;23.306;2023-11-18T01:08:25;94596.81;;;6.24;100.00
20119;BME280;10220;42.716;23.306;2023-11-18T01:10:51;94584.31;;;6.15;100.00
20119;BME280;10220;42.716;23.306;2023-11-18T01:13:16;94601.69;;;6.13;100.00
20119;BME280;10220;42.716;23.306;2023-11-18T01:15:42;94613.41;;;6.22;100.00
20119;BME280;10220;42.716;23.306;2023-11-18T01:18:07;94617.59;;;6.23;100.00
20119;BME280;10220;42.716;23.306;2023-11-18T01:20:32;94617.34;;;6.18;100.00
20119;BME280;10220;42.716;23.306;2023-11-18T01:22:58;94611.88;;;6.27;100.00
20119;BME280;10220;42.716;23.306;2023-11-18T01:25:23;94613.06;;;6.25;100.00
20119;BME280;10220;42.716;23.306;2023-11-18T01:27:50;94605.00;;;6.00;100.00
20119;BME280;10220;42.716;23.306;2023-11-18T01:30:15;94597.88;;;6.02;100.00
20119;BME280;10220;42.716;23.306;2023-11-18T01:32:40;94616.34;;;6.12;100.00
20119;BME280;10220;42.716;23.306;2023-11-18T01:35:06;94600.69;;;6.07;100.00
20119;BME280;10220;42.716;23.306;2023-11-18T01:37:33;94612.03;;;6.19;100.00
20119;BME280;10220;42.716;23.306;2023-11-18T01:39:58;94609.56;;;6.05;100.00
20119;BME280;10220;42.716;23.306;2023-11-18T01:42:24;94607.97;;;5.97;100.00
20119;BME280;10220;42.716;23.306;2023-11-18T01:44:49;94600.41;;;5.89;100.00
20119;BME280;10220;42.716;23.306;2023-11-18T01:47:15;94600.03;;;5.92;100.00
20119;BME280;10220;42.716;23.306;2023-11-18T01:49:41;94594.00;;;5.79;100.00
20119;BME280;10220;42.716;23.306;2023-11-18T01:52:07;94608.25;;;5.82;100.00
20119;BME280;10220;42.716;23.306;2023-11-18T01:54:52;94593.09;;;5.66;100.00
20119;BME280;10220;42.716;23.306;2023-11-18T01:57:20;94605.28;;;5.78;100.00
20119;BME280;10220;42.716;23.306;2023-11-18T01:59:46;94594.78;;;5.52;100.00
20119;BME280;10220;42.716;23.306;2023-11-18T02:02:12;94586.91;;;5.33;100.00
20119;BME280;10220;42.716;23.306;2023-11-18T02:04:39;94601.22;;;5.42;100.00
20119;BME280;10220;42.716;23.306;2023-11-18T02:07:04;94607.94;;;5.43;100.00
20119;BME280;10220;42.716;23.306;2023-11-18T02:09:35;94614.09;;;5.48;100.00
20119;BME280;10220;42.716;23.306;2023-11-18T02:14:45;94628.00;;;5.33;100.00
20119;BME280;10220;42.716;23.306;2023-11-18T02:17:14;94621.06;;;5.33;100.00
20119;BME280;10220;42.716;23.306;2023-11-18T02:19:40;94617.47;;;5.28;100.00
20119;BME280;10220;42.716;23.306;2023-11-18T02:22:07;94615.94;;;5.33;100.00
20119;BME280;10220;42.716;23.306;2023-11-18T02:24:33;94623.00;;;5.25;100.00
20119;BME280;10220;42.716;23.306;2023-11-18T02:27:04;94624.59;;;5.26;100.00
20119;BME280;10220;42.716;23.306;2023-11-18T02:29:34;94623.09;;;5.38;100.00
20119;BME280;10220;42.716;23.306;2023-11-18T02:32:31;94610.59;;;5.28;100.00
20119;BME280;10220;42.716;23.306;2023-11-18T02:35:23;94608.13;;;5.21;100.00
20119;BME280;10220;42.716;23.306;2023-11-18T02:37:52;94613.38;;;5.13;100.00
20119;BME280;10220;42.716;23.306;2023-11-18T02:40:24;94636.31;;;5.14;100.00
20119;BME280;10220;42.716;23.306;2023-11-18T02:42:52;94625.00;;;4.88;100.00
20119;BME280;10220;42.716;23.306;2023-11-18T02:45:19;94661.94;;;5.08;100.00
20119;BME280;10220;42.716;23.306;2023-11-18T02:47:46;94641.50;;;5.00;100.00
20119;BME280;10220;42.716;23.306;2023-11-18T02:50:12;94657.50;;;5.02;100.00
20119;BME280;10220;42.716;23.306;2023-11-18T02:52:39;94649.38;;;4.98;100.00
20119;BME280;10220;42.716;23.306;2023-11-18T02:55:06;94646.41;;;4.95;100.00
20119;BME280;10220;42.716;23.306;2023-11-18T02:57:35;94645.31;;;4.89;100.00
20119;BME280;10220;42.716;23.306;2023-11-18T03:00:02;94645.50;;;4.88;100.00
20119;BME280;10220;42.716;23.306;2023-11-18T03:02:28;94646.06;;;4.83;100.00
20119;BME280;10220;42.716;23.306;2023-11-18T03:04:57;94647.22;;;4.81;100.00
20119;BME280;10220;42.716;23.306;2023-11-18T03:07:22;94650.91;;;4.93;100.00
20119;BME280;10220;42.716;23.306;2023-11-18T03:09:47;94649.34;;;4.77;100.00
20119;BME280;10220;42.716;23.306;2023-11-18T03:12:13;94643.63;;;4.75;100.00
20119;BME280;10220;42.716;23.306;2023-11-18T03:14:39;94634.19;;;4.62;100.00
20119;BME280;10220;42.716;23.306;2023-11-18T03:17:04;94640.97;;;4.69;100.00
20119;BME280;10220;42.716;23.306;2023-11-18T03:19:34;94659.81;;;4.62;100.00
20119;BME280;10220;42.716;23.306;2023-11-18T03:22:00;94662.75;;;4.59;100.00
20119;BME280;10220;42.716;23.306;2023-11-18T03:24:26;94652.41;;;4.52;100.00
20119;BME280;10220;42.716;23.306;2023-11-18T03:26:54;94663.81;;;4.50;100.00
20119;BME280;10220;42.716;23.306;2023-11-18T03:29:20;94674.44;;;4.47;100.00
20119;BME280;10220;42.716;23.306;2023-11-18T03:31:45;94666.31;;;4.43;100.00
20119;BME280;10220;42.716;23.306;2023-11-18T03:34:14;94649.50;;;4.41;100.00
20119;BME280;10220;42.716;23.306;2023-11-18T03:36:39;94655.19;;;4.36;100.00
20119;BME280;10220;42.716;23.306;2023-11-18T03:39:05;94664.72;;;4.28;100.00
20119;BME280;10220;42.716;23.306;2023-11-18T03:41:31;94677.81;;;4.33;100.00
20119;BME280;10220;42.716;23.306;2023-11-18T03:43:57;94666.91;;;4.31;100.00
20119;BME280;10220;42.716;23.306;2023-11-18T03:46:22;94671.25;;;4.30;100.00
20119;BME280;10220;42.716;23.306;2023-11-18T03:48:48;94665.78;;;4.19;100.00
20119;BME280;10220;42.716;23.306;2023-11-18T03:51:13;94676.84;;;4.19;100.00
20119;BME280;10220;42.716;23.306;2023-11-18T03:53:42;94661.97;;;4.15;100.00
20119;BME280;10220;42.716;23.306;2023-11-18T03:56:08;94663.03;;;4.06;100.00
20119;BME280;10220;42.716;23.306;2023-11-18T03:58:33;94624.16;;;3.88;100.00
20119;BME280;10220;42.716;23.306;2023-11-18T04:01:00;94660.28;;;4.07;100.00
20119;BME280;10220;42.716;23.306;2023-11-18T04:03:26;94675.06;;;4.06;100.00
20119;BME280;10220;42.716;23.306;2023-11-18T04:05:52;94690.53;;;4.12;100.00
20119;BME280;10220;42.716;23.306;2023-11-18T04:08:17;94689.28;;;4.08;100.00
20119;BME280;10220;42.716;23.306;2023-11-18T04:10:43;94672.75;;;3.96;100.00
20119;BME280;10220;42.716;23.306;2023-11-18T04:13:08;94683.72;;;4.05;100.00
20119;BME280;10220;42.716;23.306;2023-11-18T04:15:33;94681.22;;;3.97;100.00
20119;BME280;10220;42.716;23.306;2023-11-18T04:18:00;94699.44;;;4.02;100.00
20119;BME280;10220;42.716;23.306;2023-11-18T04:20:26;94697.47;;;4.04;100.00
20119;BME280;10220;42.716;23.306;2023-11-18T04:22:52;94701.91;;;4.24;100.00
20119;BME280;10220;42.716;23.306;2023-11-18T04:25:17;94685.31;;;4.06;100.00
20119;BME280;10220;42.716;23.306;2023-11-18T04:27:43;94686.91;;;4.07;100.00
20119;BME280;10220;42.716;23.306;2023-11-18T04:30:08;94680.00;;;4.07;100.00
20119;BME280;10220;42.716;23.306;2023-11-18T04:32:34;94680.28;;;4.12;100.00
20119;BME280;10220;42.716;23.306;2023-11-18T04:35:00;94676.91;;;4.11;100.00
20119;BME280;10220;42.716;23.306;2023-11-18T04:37:32;94681.16;;;4.05;100.00
20119;BME280;10220;42.716;23.306;2023-11-18T04:39:58;94699.97;;;4.26;100.00
20119;BME280;10220;42.716;23.306;2023-11-18T04:42:24;94696.00;;;4.09;100.00
20119;BME280;10220;42.716;23.306;2023-11-18T04:44:49;94704.84;;;4.21;100.00
20119;BME280;10220;42.716;23.306;2023-11-18T04:47:15;94711.19;;;4.10;100.00
20119;BME280;10220;42.716;23.306;2023-11-18T04:49:44;94728.13;;;3.97;100.00
20119;BME280;10220;42.716;23.306;2023-11-18T04:52:09;94717.00;;;4.05;100.00
20119;BME280;10220;42.716;23.306;2023-11-18T04:54:35;94731.69;;;4.10;100.00
20119;BME280;10220;42.716;23.306;2023-11-18T04:57:01;94727.34;;;3.97;100.00
20119;BME280;10220;42.716;23.306;2023-11-18T04:59:26;94732.56;;;4.03;100.00
20119;BME280;10220;42.716;23.306;2023-11-18T05:01:52;94721.31;;;3.90;100.00
20119;BME280;10220;42.716;23.306;2023-11-18T05:04:18;94723.72;;;3.91;100.00
20119;BME280;10220;42.716;23.306;2023-11-18T05:06:44;94684.81;;;3.73;100.00
20119;BME280;10220;42.716;23.306;2023-11-18T05:09:10;94706.38;;;3.93;100.00
20119;BME280;10220;42.716;23.306;2023-11-18T05:11:36;94697.28;;;3.91;100.00
20119;BME280;10220;42.716;23.306;2023-11-18T05:14:01;94701.38;;;4.00;100.00
20119;BME280;10220;42.716;23.306;2023-11-18T05:16:29;94687.13;;;3.83;100.00
20119;BME280;10220;42.716;23.306;2023-11-18T05:18:54;94686.44;;;3.89;100.00
20119;BME280;10220;42.716;23.306;2023-11-18T05:21:20;94661.41;;;3.76;100.00
20119;BME280;10220;42.716;23.306;2023-11-18T05:23:45;94696.31;;;3.92;100.00
20119;BME280;10220;42.716;23.306;2023-11-18T05:26:11;94692.06;;;3.84;100.00
20119;BME280;10220;42.716;23.306;2023-11-18T05:28:36;94704.72;;;3.86;100.00
20119;BME280;10220;42.716;23.306;2023-11-18T05:31:03;94687.47;;;3.80;100.00
20119;BME280;10220;42.716;23.306;2023-11-18T05:33:30;94701.25;;;3.79;100.00
20119;BME280;10220;42.716;23.306;2023-11-18T05:35:56;94691.00;;;3.79;100.00
20119;BME280;10220;42.716;23.306;2023-11-18T05:38:22;94673.41;;;3.61;100.00
20119;BME280;10220;42.716;23.306;2023-11-18T05:40:49;94681.47;;;3.73;100.00
20119;BME280;10220;42.716;23.306;2023-11-18T05:43:30;94699.47;;;3.65;100.00
20119;BME280;10220;42.716;23.306;2023-11-18T05:46:04;94708.91;;;3.79;100.00
20119;BME280;10220;42.716;23.306;2023-11-18T05:49:03;94697.94;;;3.56;100.00
20119;BME280;10220;42.716;23.306;2023-11-18T05:51:32;94697.13;;;3.55;100.00
20119;BME280;10220;42.716;23.306;2023-11-18T05:53:58;94729.88;;;3.82;100.00
20119;BME280;10220;42.716;23.306;2023-11-18T05:56:23;94724.53;;;3.69;100.00
20119;BME280;10220;42.716;23.306;2023-11-18T05:58:50;94710.97;;;3.83;100.00
20119;BME280;10220;42.716;23.306;2023-11-18T06:01:16;94721.53;;;3.80;100.00
20119;BME280;10220;42.716;23.306;2023-11-18T06:03:43;94714.47;;;3.68;100.00
20119;BME280;10220;42.716;23.306;2023-11-18T06:06:10;94726.56;;;3.74;100.00
20119;BME280;10220;42.716;23.306;2023-11-18T06:08:39;94734.78;;;3.69;100.00
20119;BME280;10220;42.716;23.306;2023-11-18T06:11:07;94721.56;;;3.58;100.00
20119;BME280;10220;42.716;23.306;2023-11-18T06:13:51;94732.16;;;3.55;100.00
20119;BME280;10220;42.716;23.306;2023-11-18T06:16:24;94738.53;;;3.59;100.00
20119;BME280;10220;42.716;23.306;2023-11-18T06:18:52;94738.44;;;3.52;100.00
20119;BME280;10220;42.716;23.306;2023-11-18T06:21:23;94738.88;;;3.34;100.00
20119;BME280;10220;42.716;23.306;2023-11-18T06:23:56;94730.28;;;3.49;100.00
20119;BME280;10220;42.716;23.306;2023-11-18T06:26:23;94728.38;;;3.51;100.00
20119;BME280;10220;42.716;23.306;2023-11-18T06:28:55;94730.09;;;3.50;100.00
20119;BME280;10220;42.716;23.306;2023-11-18T06:31:21;94728.81;;;3.54;100.00
20119;BME280;10220;42.716;23.306;2023-11-18T06:33:47;94716.75;;;3.63;100.00
20119;BME280;10220;42.716;23.306;2023-11-18T06:38:49;94711.56;;;3.71;100.00
20119;BME280;10220;42.716;23.306;2023-11-18T06:41:16;94727.44;;;3.66;100.00
20119;BME280;10220;42.716;23.306;2023-11-18T06:43:44;94740.41;;;3.87;100.00
20119;BME280;10220;42.716;23.306;2023-11-18T06:46:31;94742.78;;;3.89;100.00
20119;BME280;10220;42.716;23.306;2023-11-18T06:48:59;94759.81;;;3.82;100.00
20119;BME280;10220;42.716;23.306;2023-11-18T06:51:29;94752.50;;;3.93;100.00
20119;BME280;10220;42.716;23.306;2023-11-18T06:53:55;94754.25;;;3.93;100.00
20119;BME280;10220;42.716;23.306;2023-11-18T06:56:21;94756.56;;;4.02;100.00
20119;BME280;10220;42.716;23.306;2023-11-18T06:58:46;94738.97;;;3.85;100.00
20119;BME280;10220;42.716;23.306;2023-11-18T07:01:13;94740.41;;;3.87;100.00
20119;BME280;10220;42.716;23.306;2023-11-18T07:03:43;94749.22;;;3.85;100.00
20119;BME280;10220;42.716;23.306;2023-11-18T07:06:09;94745.84;;;3.84;100.00
20119;BME280;10220;42.716;23.306;2023-11-18T07:08:38;94751.34;;;3.96;100.00
20119;BME280;10220;42.716;23.306;2023-11-18T07:11:04;94759.34;;;3.78;100.00
20119;BME280;10220;42.716;23.306;2023-11-18T07:13:31;94769.81;;;3.91;100.00
20119;BME280;10220;42.716;23.306;2023-11-18T07:15:59;94775.22;;;3.74;100.00
20119;BME280;10220;42.716;23.306;2023-11-18T07:18:24;94765.78;;;3.74;100.00
20119;BME280;10220;42.716;23.306;2023-11-18T07:20:50;94770.31;;;3.87;100.00
20119;BME280;10220;42.716;23.306;2023-11-18T07:23:19;94752.75;;;3.84;100.00
20119;BME280;10220;42.716;23.306;2023-11-18T07:25:45;94758.28;;;3.73;100.00
20119;BME280;10220;42.716;23.306;2023-11-18T07:28:11;94759.91;;;3.66;100.00
20119;BME280;10220;42.716;23.306;2023-11-18T07:30:41;94752.75;;;3.61;100.00
20119;BME280;10220;42.716;23.306;2023-11-18T07:33:06;94752.88;;;3.68;100.00
20119;BME280;10220;42.716;23.306;2023-11-18T07:35:34;94770.44;;;3.71;100.00
20119;BME280;10220;42.716;23.306;2023-11-18T07:37:59;94767.78;;;3.64;100.00
20119;BME280;10220;42.716;23.306;2023-11-18T07:40:25;94779.84;;;3.78;100.00
20119;BME280;10220;42.716;23.306;2023-11-18T07:42:56;94769.47;;;3.72;100.00
20119;BME280;10220;42.716;23.306;2023-11-18T07:45:22;94776.91;;;3.81;100.00
20119;BME280;10220;42.716;23.306;2023-11-18T07:47:52;94773.28;;;3.76;100.00
20119;BME280;10220;42.716;23.306;2023-11-18T07:50:18;94768.63;;;3.79;100.00
20119;BME280;10220;42.716;23.306;2023-11-18T07:52:46;94764.72;;;3.69;100.00
20119;BME280;10220;42.716;23.306;2023-11-18T07:55:13;94770.31;;;3.64;100.00
20119;BME280;10220;42.716;23.306;2023-11-18T07:57:39;94758.50;;;3.63;100.00
20119;BME280;10220;42.716;23.306;2023-11-18T08:00:05;94784.66;;;3.73;100.00
20119;BME280;10220;42.716;23.306;2023-11-18T08:02:37;94767.09;;;3.70;100.00
20119;BME280;10220;42.716;23.306;2023-11-18T08:05:05;94777.06;;;3.65;100.00
20119;BME280;10220;42.716;23.306;2023-11-18T08:07:40;94765.78;;;3.74;100.00
20119;BME280;10220;42.716;23.306;2023-11-18T08:10:06;94767.72;;;3.72;100.00
20119;BME280;10220;42.716;23.306;2023-11-18T08:12:32;94771.19;;;3.79;100.00
20119;BME280;10220;42.716;23.306;2023-11-18T08:14:59;94782.69;;;3.83;100.00
20119;BME280;10220;42.716;23.306;2023-11-18T08:17:25;94777.34;;;3.70;100.00
20119;BME280;10220;42.716;23.306;2023-11-18T08:19:52;94787.78;;;3.61;100.00
20119;BME280;10220;42.716;23.306;2023-11-18T08:22:18;94810.72;;;3.54;100.00
20119;BME280;10220;42.716;23.306;2023-11-18T08:24:47;94799.44;;;3.63;100.00
20119;BME280;10220;42.716;23.306;2023-11-18T08:27:14;94791.63;;;3.65;100.00
20119;BME280;10220;42.716;23.306;2023-11-18T08:29:39;94796.47;;;3.60;100.00
20119;BME280;10220;42.716;23.306;2023-11-18T08:32:05;94795.94;;;3.64;100.00
20119;BME280;10220;42.716;23.306;2023-11-18T08:34:37;94808.97;;;3.77;100.00
20119;BME280;10220;42.716;23.306;2023-11-18T08:37:04;94809.81;;;3.70;100.00
20119;BME280;10220;42.716;23.306;2023-11-18T08:39:29;94774.47;;;3.21;100.00
20119;BME280;10220;42.716;23.306;2023-11-18T08:41:57;94818.56;;;3.53;100.00
20119;BME280;10220;42.716;23.306;2023-11-18T08:44:23;94812.78;;;3.59;100.00
20119;BME280;10220;42.716;23.306;2023-11-18T08:46:52;94812.38;;;3.70;100.00
20119;BME280;10220;42.716;23.306;2023-11-18T08:49:20;94815.28;;;3.67;100.00
20119;BME280;10220;42.716;23.306;2023-11-18T08:51:50;94815.44;;;3.65;100.00
20119;BME280;10220;42.716;23.306;2023-11-18T08:54:22;94820.41;;;3.67;100.00
20119;BME280;10220;42.716;23.306;2023-11-18T08:56:48;94818.47;;;3.69;100.00
20119;BME280;10220;42.716;23.306;2023-11-18T08:59:20;94804.13;;;3.60;100.00
20119;BME280;10220;42.716;23.306;2023-11-18T09:01:53;94766.50;;;3.16;100.00
20119;BME280;10220;42.716;23.306;2023-11-18T09:04:24;94796.03;;;3.48;100.00
20119;BME280;10220;42.716;23.306;2023-11-18T09:06:50;94806.88;;;3.58;100.00
20119;BME280;10220;42.716;23.306;2023-11-18T09:09:22;94784.72;;;3.43;100.00
20119;BME280;10220;42.716;23.306;2023-11-18T09:11:55;94812.13;;;3.57;100.00
20119;BME280;10220;42.716;23.306;2023-11-18T09:14:26;94779.38;;;3.52;100.00
20119;BME280;10220;42.716;23.306;2023-11-18T09:16:52;94797.75;;;3.56;100.00
20119;BME280;10220;42.716;23.306;2023-11-18T09:19:21;94811.63;;;3.61;100.00
20119;BME280;10220;42.716;23.306;2023-11-18T09:21:47;94806.69;;;3.60;100.00
20119;BME280;10220;42.716;23.306;2023-11-18T09:24:14;94807.53;;;3.75;100.00
20119;BME280;10220;42.716;23.306;2023-11-18T09:26:43;94794.38;;;3.78;100.00
20119;BME280;10220;42.716;23.306;2023-11-18T09:29:09;94736.72;;;3.45;100.00
20119;BME280;10220;42.716;23.306;2023-11-18T09:31:36;94800.66;;;3.75;100.00
20119;BME280;10220;42.716;23.306;2023-11-18T09:34:03;94796.81;;;3.79;100.00
20119;BME280;10220;42.716;23.306;2023-11-18T09:36:32;94791.72;;;3.71;100.00
20119;BME280;10220;42.716;23.306;2023-11-18T09:38:59;94794.63;;;3.68;100.00
20119;BME280;10220;42.716;23.306;2023-11-18T09:41:25;94788.19;;;3.72;100.00
20119;BME280;10220;42.716;23.306;2023-11-18T09:43:52;94788.66;;;3.76;100.00
20119;BME280;10220;42.716;23.306;2023-11-18T09:46:23;94795.31;;;3.85;100.00
20119;BME280;10220;42.716;23.306;2023-11-18T09:51:25;94782.75;;;3.75;100.00
20119;BME280;10220;42.716;23.306;2023-11-18T09:53:59;94779.19;;;3.76;100.00
20119;BME280;10220;42.716;23.306;2023-11-18T09:56:36;94785.50;;;3.66;100.00
20119;BME280;10220;42.716;23.306;2023-11-18T09:59:26;94753.75;;;3.75;100.00
20119;BME280;10220;42.716;23.306;2023-11-18T10:01:57;94773.91;;;3.78;100.00
20119;BME280;10220;42.716;23.306;2023-11-18T10:04:25;94769.78;;;3.77;100.00
20119;BME280;10220;42.716;23.306;2023-11-18T10:06:54;94771.69;;;3.75;100.00
20119;BME280;10220;42.716;23.306;2023-11-18T10:09:23;94762.09;;;3.77;100.00
20119;BME280;10220;42.716;23.306;2023-11-18T10:12:02;94749.91;;;3.79;100.00
20119;BME280;10220;42.716;23.306;2023-11-18T10:14:36;94757.59;;;3.93;100.00
20119;BME280;10220;42.716;23.306;2023-11-18T10:17:08;94745.06;;;3.84;100.00
20119;BME280;10220;42.716;23.306;2023-11-18T10:22:25;94755.94;;;3.86;100.00
20119;BME280;10220;42.716;23.306;2023-11-18T10:24:55;94762.97;;;3.84;100.00
20119;BME280;10220;42.716;23.306;2023-11-18T10:27:26;94751.06;;;3.91;100.00
20119;BME280;10220;42.716;23.306;2023-11-18T10:29:58;94764.41;;;3.86;100.00
20119;BME280;10220;42.716;23.306;2023-11-18T10:32:24;94768.38;;;3.89;100.00
20119;BME280;10220;42.716;23.306;2023-11-18T10:34:56;94762.47;;;3.66;100.00
20119;BME280;10220;42.716;23.306;2023-11-18T10:37:23;94769.13;;;3.75;100.00
20119;BME280;10220;42.716;23.306;2023-11-18T10:39:49;94787.41;;;3.72;100.00
20119;BME280;10220;42.716;23.306;2023-11-18T10:42:19;94769.25;;;3.59;100.00
20119;BME280;10220;42.716;23.306;2023-11-18T10:44:54;94780.84;;;3.69;100.00
20119;BME280;10220;42.716;23.306;2023-11-18T10:47:24;94790.06;;;3.78;100.00
20119;BME280;10220;42.716;23.306;2023-11-18T10:49:51;94773.03;;;3.85;100.00
20119;BME280;10220;42.716;23.306;2023-11-18T10:52:17;94780.63;;;3.79;100.00
20119;BME280;10220;42.716;23.306;2023-11-18T10:54:54;94774.72;;;3.78;100.00
20119;BME280;10220;42.716;23.306;2023-11-18T10:57:22;94752.75;;;3.61;100.00
20119;BME280;10220;42.716;23.306;2023-11-18T11:00:01;94774.44;;;3.73;100.00
20119;BME280;10220;42.716;23.306;2023-11-18T11:02:34;94759.84;;;3.74;100.00
20119;BME280;10220;42.716;23.306;2023-11-18T11:05:09;94769.94;;;3.75;100.00
20119;BME280;10220;42.716;23.306;2023-11-18T11:07:42;94732.19;;;3.33;100.00
20119;BME280;10220;42.716;23.306;2023-11-18T11:10:08;94770.63;;;3.69;100.00
20119;BME280;10220;42.716;23.306;2023-11-18T11:12:39;94754.25;;;3.56;100.00
20119;BME280;10220;42.716;23.306;2023-11-18T11:15:20;94770.25;;;3.72;100.00
20119;BME280;10220;42.716;23.306;2023-11-18T11:17:54;94757.53;;;3.64;100.00
20119;BME280;10220;42.716;23.306;2023-11-18T11:20:30;94773.34;;;3.68;100.00
20119;BME280;10220;42.716;23.306;2023-11-18T11:31:38;94752.06;;;3.90;100.00
20119;BME280;10220;42.716;23.306;2023-11-18T11:34:06;94773.66;;;3.73;100.00
20119;BME280;10220;42.716;23.306;2023-11-18T11:36:47;94757.34;;;3.66;100.00
20119;BME280;10220;42.716;23.306;2023-11-18T11:39:19;94762.41;;;3.96;100.00
20119;BME280;10220;42.716;23.306;2023-11-18T11:41:52;94763.97;;;3.97;100.00
20119;BME280;10220;42.716;23.306;2023-11-18T11:44:22;94756.25;;;3.83;100.00
20119;BME280;10220;42.716;23.306;2023-11-18T11:46:54;94765.56;;;3.98;100.00
20119;BME280;10220;42.716;23.306;2023-11-18T11:49:21;94770.81;;;4.05;100.00
20119;BME280;10220;42.716;23.306;2023-11-18T11:52:02;94760.38;;;4.06;100.00
20119;BME280;10220;42.716;23.306;2023-11-18T11:54:35;94761.91;;;4.15;100.00
20119;BME280;10220;42.716;23.306;2023-11-18T11:57:06;94751.09;;;4.05;100.00
20119;BME280;10220;42.716;23.306;2023-11-18T11:59:35;94761.63;;;4.10;100.00
20119;BME280;10220;42.716;23.306;2023-11-18T12:02:03;94753.16;;;4.09;100.00
20119;BME280;10220;42.716;23.306;2023-11-18T12:04:36;94748.88;;;4.02;100.00
20119;BME280;10220;42.716;23.306;2023-11-18T12:07:05;94773.81;;;4.08;100.00
20119;BME280;10220;42.716;23.306;2023-11-18T12:09:31;94772.25;;;4.21;100.00
20119;BME280;10220;42.716;23.306;2023-11-18T12:12:04;94746.00;;;3.83;100.00
20119;BME280;10220;42.716;23.306;2023-11-18T12:14:30;94775.66;;;4.00;100.00
20119;BME280;10220;42.716;23.306;2023-11-18T12:17:07;94774.69;;;4.01;100.00
20119;BME280;10220;42.716;23.306;2023-11-18T12:19:43;94751.16;;;3.97;100.00
20119;BME280;10220;42.716;23.306;2023-11-18T12:22:22;94783.16;;;4.01;100.00
20119;BME280;10220;42.716;23.306;2023-11-18T12:33:00;94778.25;;;4.14;100.00
20119;BME280;10220;42.716;23.306;2023-11-18T12:41:39;94794.44;;;4.14;100.00
20119;BME280;10220;42.716;23.306;2023-11-18T12:44:15;94783.25;;;4.07;100.00
20119;BME280;10220;42.716;23.306;2023-11-18T12:46:51;94769.41;;;4.16;100.00
20119;BME280;10220;42.716;23.306;2023-11-18T12:49:24;94790.25;;;4.13;100.00
20119;BME280;10220;42.716;23.306;2023-11-18T12:51:55;94775.91;;;3.90;100.00
20119;BME280;10220;42.716;23.306;2023-11-18T12:54:22;94766.47;;;4.05;100.00
20119;BME280;10220;42.716;23.306;2023-11-18T12:56:51;94766.13;;;3.94;100.00
20119;BME280;10220;42.716;23.306;2023-11-18T12:59:19;94783.69;;;3.97;100.00
20119;BME280;10220;42.716;23.306;2023-11-18T13:01:52;94790.50;;;4.04;100.00
20119;BME280;10220;42.716;23.306;2023-11-18T13:04:24;94793.03;;;4.26;100.00
20119;BME280;10220;42.716;23.306;2023-11-18T13:06:50;94799.84;;;4.19;100.00
20119;BME280;10220;42.716;23.306;2023-11-18T13:09:21;94799.19;;;4.17;100.00
20119;BME280;10220;42.716;23.306;2023-11-18T13:12:02;94806.78;;;4.11;100.00
20119;BME280;10220;42.716;23.306;2023-11-18T13:14:35;94810.53;;;4.01;100.00
20119;BME280;10220;42.716;23.306;2023-11-18T13:17:08;94807.81;;;4.02;100.00
20119;BME280;10220;42.716;23.306;2023-11-18T13:19:34;94824.59;;;4.05;100.00
20119;BME280;10220;42.716;23.306;2023-11-18T13:22:01;94819.53;;;3.97;100.00
20119;BME280;10220;42.716;23.306;2023-11-18T13:24:32;94834.75;;;3.98;100.00
20119;BME280;10220;42.716;23.306;2023-11-18T13:26:58;94804.75;;;3.84;100.00
20119;BME280;10220;42.716;23.306;2023-11-18T13:29:29;94849.25;;;4.06;100.00